createdAt,value
2022-10-14T00:02:22.796Z,95610.50
2022-10-14T00:04:49.870Z,95609.84
2022-10-14T00:07:16.340Z,95612.25
2022-10-14T00:09:42.867Z,95615.44
2022-10-14T00:12:09.754Z,95621.69
2022-10-14T00:14:36.337Z,95612.41
2022-10-14T00:17:02.808Z,95617.53
2022-10-14T00:19:29.456Z,95615.59
2022-10-14T00:21:56.007Z,95622.66
2022-10-14T00:24:22.448Z,95620.38
2022-10-14T00:26:49.119Z,95623.88
2022-10-14T00:29:17.649Z,95629.88
2022-10-14T00:31:44.420Z,95634.16
2022-10-14T00:34:11.227Z,95631.13
2022-10-14T00:36:37.689Z,95635.78
2022-10-14T00:39:04.446Z,95640.56
2022-10-14T00:41:35.484Z,95630.91
2022-10-14T00:44:27.876Z,95631.72
2022-10-14T00:46:56.000Z,95632.50
2022-10-14T00:49:28.718Z,95635.69
2022-10-14T00:52:05.587Z,95628.66
2022-10-14T00:54:54.422Z,95630.25
2022-10-14T00:57:22.891Z,95628.00
2022-10-14T00:59:49.852Z,95618.66
2022-10-14T01:05:09.519Z,95616.41
2022-10-14T01:10:33.021Z,95620.28
2022-10-14T01:13:21.928Z,95622.66
2022-10-14T01:15:55.547Z,95629.69
2022-10-14T01:18:30.741Z,95625.06
2022-10-14T01:21:13.304Z,95622.00
2022-10-14T01:23:51.707Z,95620.06
2022-10-14T01:27:07.854Z,95616.88
2022-10-14T01:30:05.624Z,95622.78
2022-10-14T01:32:36.125Z,95624.13
2022-10-14T01:35:33.070Z,95617.34
2022-10-14T01:38:10.975Z,95615.06
2022-10-14T01:40:45.339Z,95624.41
2022-10-14T01:43:14.115Z,95622.13
2022-10-14T01:45:43.575Z,95620.19
2022-10-14T01:48:15.328Z,95622.91
2022-10-14T01:50:45.853Z,95616.66
2022-10-14T01:53:20.259Z,95610.88
2022-10-14T01:55:48.665Z,95611.66
2022-10-14T01:58:20.247Z,95607.03
2022-10-14T02:00:46.764Z,95610.53
2022-10-14T02:03:13.542Z,95606.22
2022-10-14T02:05:46.753Z,95611.22
2022-10-14T02:08:20.259Z,95610.41
2022-10-14T02:11:04.556Z,95613.47
2022-10-14T02:13:45.344Z,95608.34
2022-10-14T02:16:35.144Z,95611.75
2022-10-14T02:19:10.296Z,95605.50
2022-10-14T02:21:54.126Z,95609.69
2022-10-14T02:24:26.744Z,95618.66
2022-10-14T02:26:56.285Z,95607.28
2022-10-14T02:29:25.177Z,95616.25
2022-10-14T02:31:54.783Z,95606.50
2022-10-14T02:34:23.022Z,95608.81
2022-10-14T02:36:50.618Z,95607.16
2022-10-14T02:39:25.572Z,95609.06
2022-10-14T02:41:52.162Z,95613.41
2022-10-14T02:44:18.842Z,95609.91
2022-10-14T02:46:46.317Z,95615.69
2022-10-14T02:49:12.910Z,95623.88
2022-10-14T02:51:39.423Z,95619.53
2022-10-14T02:54:10.568Z,95626.13
2022-10-14T02:56:37.134Z,95616.69
2022-10-14T02:59:03.731Z,95622.78
2022-10-14T03:01:35.166Z,95625.81
2022-10-14T03:04:05.033Z,95625.69
2022-10-14T03:06:32.453Z,95624.88
2022-10-14T03:08:59.836Z,95629.88
2022-10-14T03:11:26.882Z,95619.31
2022-10-14T03:13:59.233Z,95622.34
2022-10-14T03:16:26.848Z,95619.97
2022-10-14T03:18:54.056Z,95625.75
2022-10-14T03:21:34.319Z,95632.00
2022-10-14T03:24:00.871Z,95627.69
2022-10-14T03:26:32.265Z,95623.69
2022-10-14T03:28:58.941Z,95632.31
2022-10-14T03:31:37.164Z,95629.13
2022-10-14T03:34:23.931Z,95625.94
2022-10-14T03:36:59.467Z,95617.44
2022-10-14T03:39:26.815Z,95616.66
2022-10-14T03:41:58.562Z,95612.78
2022-10-14T03:44:33.298Z,95618.22
2022-10-14T03:47:11.817Z,95622.56
2022-10-14T03:49:38.830Z,95619.03
2022-10-14T03:52:12.808Z,95625.28
2022-10-14T03:54:41.471Z,95626.06
2022-10-14T03:57:09.411Z,95617.09
2022-10-14T03:59:43.607Z,95611.66
2022-10-14T04:02:10.729Z,95610.50
2022-10-14T04:04:39.935Z,95619.16
2022-10-14T04:07:06.484Z,95611.44
2022-10-14T04:09:36.224Z,95604.38
2022-10-14T04:12:05.186Z,95613.06
2022-10-14T04:14:48.239Z,95608.38
2022-10-14T04:17:15.571Z,95602.59
2022-10-14T04:19:43.298Z,95596.03
2022-10-14T04:22:10.042Z,95602.72
2022-10-14T04:24:36.596Z,95605.13
2022-10-14T04:27:03.160Z,95597.44
2022-10-14T04:29:55.932Z,95600.66
2022-10-14T04:32:27.579Z,95592.91
2022-10-14T04:34:54.366Z,95589.84
2022-10-14T04:37:24.197Z,95594.97
2022-10-14T04:40:13.851Z,95586.47
2022-10-14T04:42:46.968Z,95585.00
2022-10-14T04:45:21.923Z,95583.06
2022-10-14T04:47:55.020Z,95581.94
2022-10-14T04:50:24.054Z,95588.97
2022-10-14T04:53:13.258Z,95571.38
2022-10-14T04:55:50.390Z,95585.78
2022-10-14T04:58:17.472Z,95578.72
2022-10-14T05:00:46.598Z,95572.50
2022-10-14T05:03:27.126Z,95569.75
2022-10-14T05:05:53.682Z,95567.81
2022-10-14T05:08:20.748Z,95562.84
2022-10-14T05:10:51.228Z,95565.25
2022-10-14T05:13:31.627Z,95559.78
2022-10-14T05:16:03.111Z,95555.13
2022-10-14T05:18:29.703Z,95557.50
2022-10-14T05:21:07.234Z,95561.34
2022-10-14T05:23:52.075Z,95551.25
2022-10-14T05:26:19.101Z,95554.44
2022-10-14T05:28:46.278Z,95546.59
2022-10-14T05:31:12.944Z,95547.06
2022-10-14T05:33:48.700Z,95550.56
2022-10-14T05:36:15.568Z,95551.38
2022-10-14T05:38:42.092Z,95554.56
2022-10-14T05:41:09.796Z,95549.56
2022-10-14T05:43:37.787Z,95547.97
2022-10-14T05:46:05.891Z,95550.38
2022-10-14T05:48:37.066Z,95551.16
2022-10-14T05:51:04.294Z,95542.97
2022-10-14T05:53:34.350Z,95544.59
2022-10-14T05:56:06.781Z,95554.69
2022-10-14T05:58:34.145Z,95554.34
2022-10-14T06:01:02.217Z,95548.91
2022-10-14T06:03:29.171Z,95550.50
2022-10-14T06:05:56.676Z,95546.66
2022-10-14T06:08:24.388Z,95552.09
2022-10-14T06:10:52.611Z,95545.50
2022-10-14T06:13:20.243Z,95545.59
2022-10-14T06:15:49.300Z,95547.09
2022-10-14T06:18:15.863Z,95539.38
2022-10-14T06:20:42.507Z,95535.19
2022-10-14T06:23:08.964Z,95541.88
2022-10-14T06:25:36.637Z,95540.09
2022-10-14T06:28:05.078Z,95537.81
2022-10-14T06:30:32.704Z,95537.63
2022-10-14T06:32:59.216Z,95533.38
2022-10-14T06:35:25.958Z,95540.56
2022-10-14T06:37:52.612Z,95539.91
2022-10-14T06:40:19.255Z,95546.28
2022-10-14T06:42:45.860Z,95543.34
2022-10-14T06:45:12.529Z,95534.47
2022-10-14T06:47:39.351Z,95544.03
2022-10-14T06:50:06.497Z,95534.00
2022-10-14T06:52:33.139Z,95536.06
2022-10-14T06:54:59.823Z,95542.47
2022-10-14T06:57:26.322Z,95543.34
2022-10-14T06:59:52.833Z,95538.47
2022-10-14T07:02:19.744Z,95538.59
2022-10-14T07:04:46.725Z,95535.16
2022-10-14T07:07:13.243Z,95544.28
2022-10-14T07:09:39.767Z,95532.34
2022-10-14T07:12:06.394Z,95536.81
2022-10-14T07:14:33.152Z,95536.91
2022-10-14T07:16:59.720Z,95524.16
2022-10-14T07:19:26.320Z,95532.91
2022-10-14T07:21:52.856Z,95537.72
2022-10-14T07:24:19.771Z,95536.34
2022-10-14T07:26:46.415Z,95537.22
2022-10-14T07:29:12.925Z,95530.72
2022-10-14T07:31:39.545Z,95520.38
2022-10-14T07:34:06.048Z,95519.34
2022-10-14T07:36:32.594Z,95516.00
2022-10-14T07:38:59.187Z,95517.38
2022-10-14T07:41:25.770Z,95512.78
2022-10-14T07:43:59.255Z,95523.84
2022-10-14T07:46:26.163Z,95515.28
2022-10-14T07:48:57.075Z,95520.41
2022-10-14T07:51:24.424Z,95514.59
2022-10-14T07:53:51.014Z,95517.78
2022-10-14T07:56:19.909Z,95511.13
2022-10-14T07:58:46.654Z,95518.22
2022-10-14T08:01:13.277Z,95519.47
2022-10-14T08:03:39.855Z,95507.84
2022-10-14T08:06:06.902Z,95509.06
2022-10-14T08:08:33.707Z,95513.84
2022-10-14T08:11:09.270Z,95513.97
2022-10-14T08:13:39.401Z,95518.72
2022-10-14T08:16:19.840Z,95515.75
2022-10-14T08:18:47.141Z,95510.38
2022-10-14T08:21:14.647Z,95509.66
2022-10-14T08:23:41.209Z,95508.53
2022-10-14T08:26:28.428Z,95514.88
2022-10-14T08:28:55.143Z,95514.22
2022-10-14T08:31:21.811Z,95516.25
2022-10-14T08:33:48.629Z,95513.59
2022-10-14T08:36:16.083Z,95516.47
2022-10-14T08:38:42.552Z,95522.03
2022-10-14T08:41:14.720Z,95510.03
2022-10-14T08:44:20.890Z,95510.13
2022-10-14T08:46:52.467Z,95512.94
2022-10-14T08:49:47.761Z,95514.97
2022-10-14T08:52:21.287Z,95517.00
2022-10-14T08:55:20.118Z,95518.25
2022-10-14T08:57:51.776Z,95514.81
2022-10-14T09:00:20.554Z,95515.69
2022-10-14T09:02:49.878Z,95517.28
2022-10-14T09:05:21.979Z,95511.03
2022-10-14T09:10:41.878Z,95501.72
2022-10-14T09:13:22.564Z,95499.09
2022-10-14T09:15:58.003Z,95507.75
2022-10-14T09:18:50.927Z,95503.41
2022-10-14T09:21:58.300Z,95494.84
2022-10-14T09:24:32.535Z,95495.38
2022-10-14T09:27:16.216Z,95492.28
2022-10-14T09:29:54.188Z,95493.50
2022-10-14T09:32:26.382Z,95491.50
2022-10-14T09:34:53.411Z,95488.63
2022-10-14T09:37:32.126Z,95491.03
2022-10-14T09:40:02.166Z,95485.38
2022-10-14T09:42:46.219Z,95492.19
2022-10-14T09:45:15.894Z,95482.97
2022-10-14T09:47:58.988Z,95490.22
2022-10-14T09:50:41.051Z,95478.13
2022-10-14T09:53:16.708Z,95482.31
2022-10-14T09:55:54.114Z,95482.91
2022-10-14T09:58:32.982Z,95494.84
2022-10-14T10:01:00.900Z,95485.25
2022-10-14T10:03:32.855Z,95479.88
2022-10-14T10:06:00.933Z,95468.34
2022-10-14T10:08:27.375Z,95468.34
2022-10-14T10:11:03.635Z,95469.47
2022-10-14T10:13:36.995Z,95466.53
2022-10-14T10:16:05.722Z,95471.72
2022-10-14T10:18:32.338Z,95475.34
2022-10-14T10:21:17.667Z,95475.78
2022-10-14T10:23:51.305Z,95472.31
2022-10-14T10:26:21.253Z,95469.97
2022-10-14T10:28:49.449Z,95467.69
2022-10-14T10:31:37.727Z,95464.56
2022-10-14T10:34:33.572Z,95458.78
2022-10-14T10:37:18.481Z,95453.69
2022-10-14T10:39:50.309Z,95447.53
2022-10-14T10:42:27.043Z,95433.50
2022-10-14T10:45:06.350Z,95432.03
2022-10-14T10:47:53.703Z,95430.56
2022-10-14T10:50:43.894Z,95428.66
2022-10-14T10:53:32.362Z,95430.31
2022-10-14T10:56:20.046Z,95426.84
2022-10-14T10:58:55.584Z,95420.59
2022-10-14T11:01:53.112Z,95425.38
2022-10-14T11:04:56.183Z,95425.41
2022-10-14T11:08:06.912Z,95423.13
2022-10-14T11:10:39.709Z,95418.53
2022-10-14T11:13:20.706Z,95402.88
2022-10-14T11:15:58.556Z,95404.94
2022-10-14T11:18:30.183Z,95405.50
2022-10-14T11:21:38.110Z,95405.59
2022-10-14T11:24:35.526Z,95395.09
2022-10-14T11:27:27.744Z,95395.19
2022-10-14T11:30:12.097Z,95394.88
2022-10-14T11:32:48.599Z,95388.28
2022-10-14T11:35:45.599Z,95382.44
2022-10-14T11:38:31.277Z,95370.75
2022-10-14T11:41:07.147Z,95366.88
2022-10-14T11:43:58.543Z,95363.31
2022-10-14T11:46:33.689Z,95365.44
2022-10-14T11:49:39.028Z,95360.34
2022-10-14T11:52:15.478Z,95353.81
2022-10-14T11:54:48.177Z,95350.72
2022-10-14T11:57:22.840Z,95343.34
2022-10-14T12:00:03.862Z,95340.28
2022-10-14T12:03:01.048Z,95341.53
2022-10-14T12:05:36.114Z,95343.94
2022-10-14T12:08:14.676Z,95339.25
2022-10-14T12:10:53.553Z,95342.41
2022-10-14T12:13:34.535Z,95335.38
2022-10-14T12:16:03.457Z,95335.00
2022-10-14T12:18:31.565Z,95333.84
2022-10-14T12:21:32.861Z,95333.88
2022-10-14T12:24:10.981Z,95323.28
2022-10-14T12:26:49.892Z,95320.94
2022-10-14T12:29:20.634Z,95313.94
2022-10-14T12:32:00.124Z,95309.63
2022-10-14T12:34:33.393Z,95308.88
2022-10-14T12:37:27.423Z,95309.66
2022-10-14T12:40:03.262Z,95308.09
2022-10-14T12:42:32.075Z,95303.00
2022-10-14T12:45:12.955Z,95301.03
2022-10-14T12:47:40.091Z,95301.81
2022-10-14T12:50:24.660Z,95302.22
2022-10-14T12:53:01.014Z,95297.09
2022-10-14T12:55:34.202Z,95290.00
2022-10-14T12:58:03.423Z,95291.56
2022-10-14T13:00:39.662Z,95287.22
2022-10-14T13:03:21.600Z,95289.19
2022-10-14T13:05:48.298Z,95284.81
2022-10-14T13:08:20.531Z,95281.66
2022-10-14T13:10:59.430Z,95284.44
2022-10-14T13:13:38.224Z,95278.88
2022-10-14T13:16:09.892Z,95275.72
2022-10-14T13:18:42.393Z,95275.69
2022-10-14T13:21:20.285Z,95278.03
2022-10-14T13:23:51.203Z,95274.84
2022-10-14T13:27:02.625Z,95288.22
2022-10-14T13:29:45.704Z,95273.22
2022-10-14T13:32:31.218Z,95270.84
2022-10-14T13:35:19.384Z,95263.34
2022-10-14T13:37:56.613Z,95273.16
2022-10-14T13:40:43.518Z,95271.22
2022-10-14T13:43:16.238Z,95263.72
2022-10-14T13:45:47.371Z,95263.72
2022-10-14T13:48:23.609Z,95277.50
2022-10-14T13:51:02.140Z,95275.13
2022-10-14T13:53:49.202Z,95267.16
2022-10-14T13:56:22.998Z,95270.75
2022-10-14T13:58:50.910Z,95272.75
2022-10-14T14:01:20.876Z,95278.19
2022-10-14T14:03:53.291Z,95270.69
2022-10-14T14:06:21.733Z,95268.75
2022-10-14T14:08:53.117Z,95276.19
2022-10-14T14:11:25.405Z,95280.47
2022-10-14T14:14:00.611Z,95278.47
2022-10-14T14:16:41.269Z,95275.25
2022-10-14T14:19:19.656Z,95280.31
2022-10-14T14:21:46.237Z,95278.31
2022-10-14T14:24:24.379Z,95280.56
2022-10-14T14:26:55.357Z,95279.31
2022-10-14T14:29:28.359Z,95285.16
2022-10-14T14:32:12.048Z,95287.47
2022-10-14T14:34:42.220Z,95298.44
2022-10-14T14:40:07.020Z,95319.50
2022-10-14T14:42:39.809Z,95319.81
2022-10-14T14:45:53.170Z,95326.34
2022-10-14T14:48:19.886Z,95328.94
2022-10-14T14:50:46.977Z,95329.97
2022-10-14T14:53:20.528Z,95336.00
2022-10-14T14:55:53.322Z,95326.31
2022-10-14T14:58:28.094Z,95322.59
2022-10-14T15:00:55.376Z,95318.91
2022-10-14T15:03:34.169Z,95306.50
2022-10-14T15:06:04.015Z,95307.19
2022-10-14T15:08:37.356Z,95306.72
2022-10-14T15:11:04.331Z,95300.38
2022-10-14T15:13:39.992Z,95310.88
2022-10-14T15:16:07.591Z,95312.00
2022-10-14T15:18:34.508Z,95303.72
2022-10-14T15:21:18.343Z,95300.00
2022-10-14T15:23:50.587Z,95290.28
2022-10-14T15:26:46.507Z,95281.22
2022-10-14T15:32:15.364Z,95290.22
2022-10-14T15:34:41.995Z,95278.84
2022-10-14T15:37:13.586Z,95281.94
2022-10-14T15:39:40.152Z,95275.66
2022-10-14T15:42:12.546Z,95270.09
2022-10-14T15:44:39.061Z,95262.22
2022-10-14T15:47:08.900Z,95271.19
2022-10-14T15:49:42.461Z,95259.00
2022-10-14T15:52:16.627Z,95255.03
2022-10-14T15:54:43.832Z,95252.66
2022-10-14T15:57:13.948Z,95255.78
2022-10-14T15:59:46.310Z,95253.41
2022-10-14T16:02:23.657Z,95258.03
2022-10-14T16:05:15.024Z,95249.38
2022-10-14T16:07:38.105Z,95250.91
2022-10-14T16:10:05.992Z,95255.59
2022-10-14T16:12:32.504Z,95245.38
2022-10-14T16:15:00.189Z,95253.16
2022-10-14T16:17:26.717Z,95249.19
2022-10-14T16:19:53.200Z,95250.34
2022-10-14T16:22:19.704Z,95246.38
2022-10-14T16:24:46.204Z,95245.97
2022-10-14T16:27:12.792Z,95249.06
2022-10-14T16:29:39.234Z,95245.09
2022-10-14T16:32:05.797Z,95243.09
2022-10-14T16:34:32.277Z,95248.13
2022-10-14T16:36:58.840Z,95234.00
2022-10-14T16:39:25.461Z,95240.22
2022-10-14T16:41:52.007Z,95236.25
2022-10-14T16:44:18.468Z,95246.78
2022-10-14T16:46:45.046Z,95251.03
2022-10-14T16:49:11.756Z,95247.88
2022-10-14T16:51:38.238Z,95254.09
2022-10-14T16:54:04.786Z,95252.44
2022-10-14T16:56:31.255Z,95256.72
2022-10-14T16:58:58.931Z,95264.94
2022-10-14T17:01:25.566Z,95271.13
2022-10-14T17:03:53.326Z,95262.44
2022-10-14T17:06:23.908Z,95264.75
2022-10-14T17:08:51.136Z,95263.19
2022-10-14T17:11:18.143Z,95262.72
2022-10-14T17:13:44.969Z,95260.00
2022-10-14T17:16:12.003Z,95261.16
2022-10-14T17:18:41.053Z,95256.81
2022-10-14T17:21:10.603Z,95260.72
2022-10-14T17:23:38.696Z,95256.03
2022-10-14T17:26:05.539Z,95260.53
2022-10-14T17:28:32.626Z,95260.66
2022-10-14T17:30:59.748Z,95263.41
2022-10-14T17:33:26.277Z,95259.06
2022-10-14T17:35:57.168Z,95267.63
2022-10-14T17:38:24.942Z,95267.63
2022-10-14T17:40:51.703Z,95260.59
2022-10-14T17:43:19.331Z,95262.50
2022-10-14T17:45:46.106Z,95255.91
2022-10-14T17:48:13.861Z,95261.16
2022-10-14T17:50:40.374Z,95261.31
2022-10-14T17:53:06.836Z,95268.34
2022-10-14T17:55:35.519Z,95258.56
2022-10-14T17:58:02.058Z,95265.19
2022-10-14T18:00:28.592Z,95266.00
2022-10-14T18:02:55.060Z,95268.28
2022-10-14T18:05:21.635Z,95264.00
2022-10-14T18:07:48.112Z,95260.00
2022-10-14T18:10:14.668Z,95261.16
2022-10-14T18:12:41.622Z,95264.25
2022-10-14T18:15:08.616Z,95262.69
2022-10-14T18:17:35.167Z,95255.59
2022-10-14T18:20:02.048Z,95261.88
2022-10-14T18:22:28.725Z,95260.31
2022-10-14T18:24:55.188Z,95255.59
2022-10-14T18:27:22.558Z,95255.97
2022-10-14T18:29:49.256Z,95263.41
2022-10-14T18:32:15.755Z,95260.66
2022-10-14T18:34:42.261Z,95261.03
2022-10-14T18:37:08.763Z,95250.06
2022-10-14T18:39:35.243Z,95259.44
2022-10-14T18:42:02.768Z,95259.78
2022-10-14T18:44:29.290Z,95253.88
2022-10-14T18:46:55.852Z,95263.25
2022-10-14T18:49:22.803Z,95267.94
2022-10-14T18:51:49.550Z,95263.59
2022-10-14T18:54:19.212Z,95256.91
2022-10-14T18:56:46.726Z,95259.19
2022-10-14T18:59:15.736Z,95261.16
2022-10-14T19:01:42.574Z,95256.81
2022-10-14T19:04:11.292Z,95260.72
2022-10-14T19:06:37.792Z,95246.56
2022-10-14T19:09:05.073Z,95245.78
2022-10-14T19:11:34.311Z,95247.31
2022-10-14T19:14:01.641Z,95239.09
2022-10-14T19:16:33.168Z,95233.97
2022-10-14T19:19:04.312Z,95243.34
2022-10-14T19:21:31.278Z,95235.47
2022-10-14T19:23:58.881Z,95240.16
2022-10-14T19:26:28.522Z,95229.56
2022-10-14T19:28:57.151Z,95238.94
2022-10-14T19:31:26.064Z,95237.34
2022-10-14T19:33:53.829Z,95235.75
2022-10-14T19:36:22.955Z,95238.06
2022-10-14T19:38:52.470Z,95241.16
2022-10-14T19:41:19.156Z,95242.75
2022-10-14T19:43:45.875Z,95236.03
2022-10-14T19:46:13.402Z,95241.50
2022-10-14T19:48:40.078Z,95228.97
2022-10-14T19:51:08.109Z,95218.38
2022-10-14T19:53:34.873Z,95221.13
2022-10-14T19:56:05.719Z,95218.03
2022-10-14T19:58:32.559Z,95204.31
2022-10-14T20:01:07.351Z,95203.50
2022-10-14T20:03:34.322Z,95203.97
2022-10-14T20:06:01.247Z,95190.28
2022-10-14T20:08:28.632Z,95195.31
2022-10-14T20:10:55.455Z,95194.50
2022-10-14T20:13:22.739Z,95200.78
2022-10-14T20:15:54.272Z,95198.44
2022-10-14T20:18:21.043Z,95198.44
2022-10-14T20:20:47.644Z,95196.03
2022-10-14T20:23:14.191Z,95193.66
2022-10-14T20:25:40.792Z,95192.06
2022-10-14T20:28:08.153Z,95194.81
2022-10-14T20:30:34.811Z,95190.03
2022-10-14T20:33:01.322Z,95186.53
2022-10-14T20:37:55.305Z,95180.22
2022-10-14T20:42:48.710Z,95178.31
2022-10-14T20:45:15.405Z,95174.75
2022-10-14T20:47:41.924Z,95180.22
2022-10-14T20:50:08.666Z,95180.22
2022-10-14T20:52:35.265Z,95176.34
2022-10-14T20:55:01.865Z,95178.66
2022-10-14T20:57:28.449Z,95178.31
2022-10-14T20:59:54.957Z,95177.13
2022-10-14T21:02:21.638Z,95173.63
2022-10-14T21:04:49.766Z,95177.50
2022-10-14T21:07:16.300Z,95173.75
2022-10-14T21:09:42.936Z,95165.22
2022-10-14T21:12:10.087Z,95165.22
2022-10-14T21:14:36.635Z,95174.97
2022-10-14T21:17:03.540Z,95162.78
2022-10-14T21:19:30.168Z,95160.41
2022-10-14T21:21:56.803Z,95164.31
2022-10-14T21:24:23.783Z,95161.94
2022-10-14T21:26:50.260Z,95165.81
2022-10-14T21:29:17.511Z,95162.66
2022-10-14T21:31:44.291Z,95166.53
2022-10-14T21:34:11.500Z,95159.09
2022-10-14T21:36:38.875Z,95160.28
2022-10-14T21:39:16.422Z,95157.03
2022-10-14T21:41:43.128Z,95147.72
2022-10-14T21:44:13.443Z,95143.84
2022-10-14T21:46:39.963Z,95147.38
2022-10-14T21:49:06.666Z,95139.16
2022-10-14T21:51:34.104Z,95135.28
2022-10-14T21:54:00.775Z,95131.72
2022-10-14T21:56:28.122Z,95127.41
2022-10-14T21:58:54.709Z,95116.47
2022-10-14T22:01:27.420Z,95114.88
2022-10-14T22:03:56.712Z,95109.41
2022-10-14T22:06:26.379Z,95113.25
2022-10-14T22:08:56.422Z,95105.38
2022-10-14T22:11:29.117Z,95106.56
2022-10-14T22:13:57.096Z,95106.91
2022-10-14T22:16:24.152Z,95110.81
2022-10-14T22:18:52.292Z,95105.31
2022-10-14T22:21:20.164Z,95110.56
2022-10-14T22:23:47.863Z,95103.88
2022-10-14T22:26:17.295Z,95107.22
2022-10-14T22:28:44.201Z,95107.63
2022-10-14T22:31:13.857Z,95106.84
2022-10-14T22:33:41.113Z,95113.91
2022-10-14T22:36:22.815Z,95106.75
2022-10-14T22:38:51.733Z,95096.63
2022-10-14T22:41:19.881Z,95100.94
2022-10-14T22:43:48.339Z,95099.34
2022-10-14T22:46:16.878Z,95096.63
2022-10-14T22:48:43.360Z,95097.41
2022-10-14T22:51:11.942Z,95082.94
2022-10-14T22:53:40.236Z,95085.69
2022-10-14T22:56:09.796Z,95084.84
2022-10-14T22:58:36.965Z,95084.06
2022-10-14T23:01:07.741Z,95091.88
2022-10-14T23:03:35.320Z,95083.28
2022-10-14T23:06:03.561Z,95077.00
2022-10-14T23:08:30.905Z,95077.00
2022-10-14T23:10:58.321Z,95067.59
2022-10-14T23:13:25.429Z,95066.78
2022-10-14T23:15:59.320Z,95062.84
2022-10-14T23:18:27.436Z,95066.28
2022-10-14T23:20:54.064Z,95063.31
2022-10-14T23:23:20.525Z,95065.03
2022-10-14T23:25:47.214Z,95049.09
2022-10-14T23:28:14.037Z,95057.28
2022-10-14T23:30:40.672Z,95058.00
2022-10-14T23:33:07.376Z,95052.00
2022-10-14T23:35:35.486Z,95047.69
2022-10-14T23:38:01.907Z,95051.34
2022-10-14T23:40:28.367Z,95043.28
2022-10-14T23:42:54.861Z,95044.88
2022-10-14T23:45:21.388Z,95051.50
2022-10-14T23:47:47.956Z,95036.59
2022-10-14T23:50:14.546Z,95040.13
2022-10-14T23:52:41.146Z,95039.69
2022-10-14T23:55:08.269Z,95045.16
2022-10-14T23:57:34.738Z,95043.56
